Time;durP1;ratioP1;P1;durP2;ratioP2;P2;SDS_P1;SDS_P2;PMS_P1;PMS_P2;Temp;Humidity;BMP_temperature;BMP_pressure;BME280_temperature;BME280_humidity;BME280_pressure;Samples;Min_cycle;Max_cycle;Signal;HPM_P1;HPM_P2
2023/06/05 00:01:13;;;;;;;5.07;2.75;;;10.30;99.90;;;;;;5134665;27;20088;-68
2023/06/05 00:03:39;;;;;;;4.43;2.90;;;10.30;99.90;;;;;;5116038;27;20133;-68
2023/06/05 00:06:06;;;;;;;4.45;2.80;;;10.30;99.90;;;;;;5116360;27;20435;-68
2023/06/05 00:08:32;;;;;;;5.40;2.92;;;10.30;99.90;;;;;;5116607;27;20054;-68
2023/06/05 00:10:57;;;;;;;5.82;3.10;;;10.30;99.90;;;;;;5116043;27;20043;-68
2023/06/05 00:13:23;;;;;;;4.90;3.13;;;10.20;99.90;;;;;;5134238;27;20072;-68
2023/06/05 00:15:51;;;;;;;5.88;3.58;;;10.20;99.90;;;;;;5134461;27;20135;-68
2023/06/05 00:18:17;;;;;;;4.80;3.47;;;10.20;99.90;;;;;;5115943;27;20047;-68
2023/06/05 00:20:43;;;;;;;5.50;3.30;;;10.20;99.90;;;;;;5134368;27;20563;-68
2023/06/05 00:23:11;;;;;;;5.30;3.05;;;10.20;99.90;;;;;;5134297;27;20077;-68
2023/06/05 00:25:37;;;;;;;5.40;3.40;;;10.10;99.90;;;;;;5115875;27;20555;-68
2023/06/05 00:28:02;;;;;;;5.50;3.60;;;10.10;99.90;;;;;;5112440;28;20133;-67
2023/06/05 00:30:28;;;;;;;5.65;2.85;;;10.00;99.90;;;;;;5113252;28;20504;-67
2023/06/05 00:32:54;;;;;;;5.38;3.03;;;10.00;99.90;;;;;;5113267;28;20134;-68
2023/06/05 00:35:20;;;;;;;5.68;3.78;;;9.90;99.90;;;;;;5113341;28;20048;-68
2023/06/05 00:37:46;;;;;;;5.38;3.40;;;9.90;99.90;;;;;;5118188;27;20049;-68
2023/06/05 00:40:12;;;;;;;4.85;3.13;;;10.00;99.90;;;;;;5133202;27;20395;-67
2023/06/05 00:42:38;;;;;;;5.97;3.53;;;10.00;99.90;;;;;;5134193;27;20175;-68
2023/06/05 00:45:04;;;;;;;4.90;3.30;;;9.90;99.90;;;;;;5134062;27;20503;-68
2023/06/05 00:47:31;;;;;;;5.38;3.50;;;9.90;99.90;;;;;;5133987;27;20078;-68
2023/06/05 00:49:57;;;;;;;5.90;3.40;;;9.80;99.90;;;;;;5115726;28;20043;-68
2023/06/05 00:52:23;;;;;;;5.97;4.00;;;9.90;99.90;;;;;;5133481;28;20491;-67
2023/06/05 00:54:49;;;;;;;5.97;3.60;;;9.80;99.90;;;;;;5134168;28;20047;-68
2023/06/05 00:57:15;;;;;;;6.97;3.95;;;9.80;99.90;;;;;;5112216;28;20468;-68
2023/06/05 00:59:44;;;;;;;5.07;3.17;;;9.80;99.90;;;;;;5112521;28;20040;-68
2023/06/05 01:02:12;;;;;;;5.28;3.45;;;9.80;99.90;;;;;;5113480;28;20051;-67
2023/06/05 01:04:43;;;;;;;6.63;3.83;;;9.80;99.90;;;;;;5111756;28;20051;-68
2023/06/05 01:07:13;;;;;;;6.50;3.83;;;9.70;99.90;;;;;;5113485;28;20094;-67
2023/06/05 01:09:40;;;;;;;4.40;3.33;;;9.70;99.90;;;;;;5112433;28;20055;-68
2023/06/05 01:12:25;;;;;;;5.90;3.58;;;9.60;99.90;;;;;;5112477;28;20126;-67
2023/06/05 01:14:56;;;;;;;5.20;3.47;;;9.60;99.90;;;;;;5113160;28;20547;-68
2023/06/05 01:17:24;;;;;;;5.00;3.30;;;9.40;99.90;;;;;;5112317;28;20134;-68
2023/06/05 01:19:51;;;;;;;6.90;3.58;;;9.40;99.90;;;;;;5112242;28;20105;-68
2023/06/05 01:22:17;;;;;;;7.20;4.10;;;9.30;99.90;;;;;;5112213;28;20056;-67
2023/06/05 01:24:42;;;;;;;6.60;3.38;;;9.30;99.90;;;;;;5112296;28;20064;-67
2023/06/05 01:27:15;;;;;;;5.22;3.70;;;9.20;99.90;;;;;;5113191;28;20051;-68
2023/06/05 01:29:52;;;;;;;5.57;3.38;;;9.20;99.90;;;;;;5131363;28;20105;-67
2023/06/05 01:32:36;;;;;;;6.05;3.53;;;9.10;99.90;;;;;;5115484;28;20043;-67
2023/06/05 01:35:06;;;;;;;5.68;3.50;;;9.10;99.90;;;;;;5115314;28;20039;-67
2023/06/05 01:37:40;;;;;;;6.63;3.55;;;9.00;99.90;;;;;;5136847;27;20038;-68
2023/06/05 01:40:07;;;;;;;6.75;3.65;;;9.00;99.90;;;;;;5136185;27;20065;-67
2023/06/05 01:42:33;;;;;;;6.30;3.67;;;8.90;99.90;;;;;;5156978;27;20133;-67
2023/06/05 01:44:59;;;;;;;6.05;4.28;;;8.90;99.90;;;;;;5139935;27;20133;-67
2023/06/05 01:47:25;;;;;;;6.15;3.83;;;8.90;99.90;;;;;;5122589;27;20043;-67
2023/06/05 01:49:52;;;;;;;6.38;3.75;;;8.90;99.90;;;;;;5139402;27;20082;-67
2023/06/05 01:52:17;;;;;;;6.13;3.97;;;8.90;99.90;;;;;;5158071;27;20099;-67
2023/06/05 01:54:45;;;;;;;6.72;3.90;;;8.90;99.90;;;;;;5139566;27;20046;-68
2023/06/05 01:57:11;;;;;;;7.15;5.07;;;8.90;99.90;;;;;;5137414;27;20051;-67
2023/06/05 01:59:37;;;;;;;6.80;3.63;;;8.80;99.90;;;;;;5101784;27;20051;-67
2023/06/05 02:02:03;;;;;;;6.25;4.05;;;8.80;99.90;;;;;;5118817;27;20039;-67
2023/06/05 02:04:29;;;;;;;7.03;4.00;;;8.80;99.90;;;;;;5118302;27;20111;-67
2023/06/05 02:06:55;;;;;;;6.28;4.15;;;8.90;99.90;;;;;;5136624;27;20479;-67
2023/06/05 02:09:20;;;;;;;7.40;4.38;;;8.80;99.90;;;;;;5118942;27;20051;-68
2023/06/05 02:11:47;;;;;;;8.10;4.00;;;8.90;99.90;;;;;;5136209;27;20050;-67
2023/06/05 02:14:13;;;;;;;6.82;3.72;;;8.80;99.90;;;;;;5118272;27;20642;-67
2023/06/05 02:16:40;;;;;;;6.28;3.67;;;8.80;99.90;;;;;;5136711;27;20070;-67
2023/06/05 02:19:06;;;;;;;6.47;3.97;;;8.80;99.90;;;;;;5118290;27;20395;-67
2023/06/05 02:21:33;;;;;;;7.93;4.05;;;8.80;99.90;;;;;;5118193;27;20042;-67
2023/06/05 02:24:02;;;;;;;6.13;3.65;;;8.70;99.90;;;;;;5136592;27;20043;-67
2023/06/05 02:26:28;;;;;;;6.35;3.75;;;8.70;99.90;;;;;;5118005;27;20039;-67
2023/06/05 02:28:54;;;;;;;5.90;3.63;;;8.60;99.90;;;;;;5136537;27;20057;-67
2023/06/05 02:31:24;;;;;;;5.97;4.20;;;8.60;99.90;;;;;;5136497;27;20047;-67
2023/06/05 02:33:55;;;;;;;8.32;4.00;;;8.60;99.90;;;;;;5117803;27;20043;-67
2023/06/05 02:36:22;;;;;;;6.93;3.75;;;8.50;99.90;;;;;;5118150;27;20092;-67
2023/06/05 02:38:49;;;;;;;6.75;4.30;;;8.50;99.90;;;;;;5150688;27;20364;-67
2023/06/05 02:41:19;;;;;;;6.53;4.22;;;8.50;99.90;;;;;;5156823;27;20057;-67
2023/06/05 02:43:45;;;;;;;6.75;4.00;;;8.40;99.90;;;;;;5138713;27;20372;-67
2023/06/05 02:46:11;;;;;;;7.40;3.90;;;8.40;99.90;;;;;;5138751;27;20049;-66
2023/06/05 02:48:37;;;;;;;5.38;3.95;;;8.40;99.90;;;;;;5158592;27;20038;-66
2023/06/05 02:51:03;;;;;;;6.60;4.68;;;8.30;99.90;;;;;;5157845;27;20054;-66
2023/06/05 02:53:29;;;;;;;6.85;4.57;;;8.20;99.90;;;;;;5157161;27;20046;-67
2023/06/05 02:55:59;;;;;;;6.43;3.85;;;8.20;99.90;;;;;;5128795;27;20458;-67
2023/06/05 02:58:25;;;;;;;5.85;3.70;;;8.20;99.90;;;;;;5135939;27;20050;-67
2023/06/05 03:00:50;;;;;;;5.97;4.05;;;8.20;99.90;;;;;;5135568;27;20043;-67
2023/06/05 03:03:16;;;;;;;8.55;4.68;;;8.20;99.90;;;;;;5135280;27;20092;-67
2023/06/05 03:05:44;;;;;;;6.13;4.03;;;8.20;99.90;;;;;;5135810;27;20054;-67
2023/06/05 03:08:10;;;;;;;6.20;3.65;;;8.20;99.90;;;;;;5117653;27;20107;-67
2023/06/05 03:10:36;;;;;;;7.35;4.22;;;8.20;99.90;;;;;;5117419;27;20050;-67
2023/06/05 03:13:02;;;;;;;6.68;3.92;;;8.30;99.90;;;;;;5116990;27;20122;-67
2023/06/05 03:15:28;;;;;;;6.47;4.00;;;8.30;99.90;;;;;;5116846;27;20043;-67
2023/06/05 03:17:53;;;;;;;6.40;3.80;;;8.40;99.90;;;;;;5134987;27;20558;-67
2023/06/05 03:20:19;;;;;;;6.80;4.30;;;8.40;99.90;;;;;;5135354;27;20055;-67
2023/06/05 03:22:45;;;;;;;6.43;3.95;;;8.40;99.90;;;;;;5116874;27;20544;-67
2023/06/05 03:25:11;;;;;;;6.45;4.00;;;8.50;99.90;;;;;;5135308;27;20461;-67
2023/06/05 03:27:37;;;;;;;6.70;3.67;;;8.50;99.90;;;;;;5135349;27;20114;-67
2023/06/05 03:30:04;;;;;;;8.13;3.88;;;8.60;99.90;;;;;;5135296;27;20111;-67
2023/06/05 03:32:31;;;;;;;6.20;3.83;;;8.70;99.90;;;;;;5135325;27;20051;-67
2023/06/05 03:34:56;;;;;;;7.35;3.70;;;8.80;99.90;;;;;;5116426;27;20130;-67
2023/06/05 03:37:22;;;;;;;6.18;3.90;;;8.80;99.90;;;;;;5119019;27;20187;-67
2023/06/05 03:39:48;;;;;;;6.65;4.10;;;8.80;99.90;;;;;;5137393;27;20042;-67
2023/06/05 03:42:13;;;;;;;6.35;3.72;;;8.80;99.90;;;;;;5137441;27;20046;-67
2023/06/05 03:44:39;;;;;;;6.20;3.97;;;8.80;99.90;;;;;;5137188;27;20387;-67
2023/06/05 03:47:06;;;;;;;5.95;3.55;;;8.80;99.90;;;;;;5155714;27;20084;-67
2023/06/05 03:49:32;;;;;;;6.63;3.90;;;8.80;99.90;;;;;;5155654;27;20034;-67
2023/06/05 03:52:00;;;;;;;5.82;3.72;;;8.80;99.90;;;;;;5155493;27;20046;-67
2023/06/05 03:54:27;;;;;;;6.05;3.78;;;8.80;99.90;;;;;;5137234;27;20126;-67
2023/06/05 03:56:58;;;;;;;5.97;3.75;;;8.80;99.90;;;;;;5137697;27;20411;-67
2023/06/05 03:59:25;;;;;;;7.22;3.95;;;8.80;99.90;;;;;;5134807;27;20109;-67
2023/06/05 04:01:51;;;;;;;6.40;3.90;;;8.90;99.90;;;;;;5134714;27;20051;-67
2023/06/05 04:04:17;;;;;;;6.75;3.75;;;8.90;99.90;;;;;;5134096;27;20456;-67
2023/06/05 04:06:43;;;;;;;6.63;4.00;;;8.90;99.90;;;;;;5115737;27;20126;-67
2023/06/05 04:09:12;;;;;;;6.10;3.60;;;8.90;99.90;;;;;;5116552;27;20500;-67
2023/06/05 04:11:47;;;;;;;6.47;3.88;;;8.90;99.90;;;;;;5134425;27;20078;-67
2023/06/05 04:14:14;;;;;;;6.60;4.30;;;9.00;99.90;;;;;;5116491;27;20089;-67
2023/06/05 04:16:43;;;;;;;6.10;3.67;;;9.00;99.90;;;;;;5099413;27;20051;-67
2023/06/05 04:19:10;;;;;;;7.82;4.10;;;9.00;99.90;;;;;;5134243;27;20043;-67
2023/06/05 04:21:37;;;;;;;7.07;3.75;;;9.10;99.90;;;;;;5116273;27;20054;-67
2023/06/05 04:24:08;;;;;;;4.93;3.58;;;9.10;99.90;;;;;;5116353;27;20174;-67
2023/06/05 04:26:35;;;;;;;7.57;4.10;;;9.20;99.90;;;;;;5115865;27;20039;-67
2023/06/05 04:29:02;;;;;;;6.30;3.88;;;9.30;99.90;;;;;;5133965;27;20506;-67
2023/06/05 04:31:32;;;;;;;7.10;4.03;;;9.40;99.90;;;;;;5134203;27;20051;-67
2023/06/05 04:33:58;;;;;;;4.60;3.50;;;9.50;99.90;;;;;;5133736;27;20051;-67
2023/06/05 04:36:26;;;;;;;6.68;4.18;;;9.60;99.90;;;;;;5134335;27;20390;-67
2023/06/05 04:38:52;;;;;;;6.55;3.80;;;9.70;99.90;;;;;;5149033;27;20043;-67
2023/06/05 04:41:18;;;;;;;6.05;3.70;;;9.80;99.90;;;;;;5136550;27;20184;-67
2023/06/05 04:43:44;;;;;;;5.97;3.80;;;9.90;99.90;;;;;;5136529;27;20049;-67
2023/06/05 04:46:09;;;;;;;6.40;3.55;;;10.00;99.90;;;;;;5154762;27;20047;-67
2023/06/05 04:48:36;;;;;;;6.32;4.13;;;10.10;99.90;;;;;;5154725;27;20378;-68
2023/06/05 04:51:02;;;;;;;7.10;4.20;;;10.20;99.90;;;;;;5154741;27;20039;-67
2023/06/05 04:53:30;;;;;;;6.75;3.72;;;10.30;99.90;;;;;;5119357;27;20038;-67
2023/06/05 04:56:01;;;;;;;7.53;3.80;;;10.40;99.90;;;;;;5145090;27;20112;-67
2023/06/05 04:58:27;;;;;;;7.47;3.90;;;10.40;99.90;;;;;;5115662;28;20146;-67
2023/06/05 05:00:52;;;;;;;5.28;3.65;;;10.60;99.90;;;;;;5133938;28;20097;-67
2023/06/05 05:03:18;;;;;;;7.38;3.70;;;10.60;99.90;;;;;;5133369;28;20054;-69
2023/06/05 05:05:44;;;;;;;5.28;3.70;;;10.70;99.90;;;;;;5133984;28;20394;-68
2023/06/05 05:08:10;;;;;;;6.63;4.05;;;10.80;99.90;;;;;;5098931;28;20054;-68
2023/06/05 05:10:37;;;;;;;5.85;3.90;;;10.90;99.90;;;;;;5133977;28;20047;-69
2023/06/05 05:13:03;;;;;;;5.10;3.40;;;11.00;99.90;;;;;;5133127;28;20054;-68
2023/06/05 05:15:29;;;;;;;6.60;3.83;;;11.10;99.90;;;;;;5115487;28;20052;-63
2023/06/05 05:17:57;;;;;;;5.15;3.33;;;11.20;99.90;;;;;;5137065;27;20070;-63
2023/06/05 05:20:23;;;;;;;8.15;3.90;;;11.30;99.90;;;;;;5119644;27;20429;-63
2023/06/05 05:22:49;;;;;;;4.75;3.42;;;11.30;99.90;;;;;;5137355;27;20095;-63
2023/06/05 05:25:15;;;;;;;5.35;3.38;;;11.40;99.90;;;;;;5137911;27;20419;-63
2023/06/05 05:27:41;;;;;;;5.88;3.53;;;11.50;99.90;;;;;;5137696;27;20047;-63
2023/06/05 05:30:08;;;;;;;7.60;3.97;;;11.60;99.90;;;;;;5137843;27;20059;-63
2023/06/05 05:32:34;;;;;;;5.13;3.38;;;11.60;99.90;;;;;;5137953;27;20379;-63
2023/06/05 05:34:59;;;;;;;6.38;3.50;;;11.60;99.90;;;;;;5136870;27;20051;-63
2023/06/05 05:37:25;;;;;;;6.05;3.72;;;11.80;99.90;;;;;;5139970;27;20498;-63
2023/06/05 05:39:52;;;;;;;6.40;4.15;;;11.80;99.90;;;;;;5149710;27;20045;-64
2023/06/05 05:42:17;;;;;;;7.38;4.63;;;12.00;99.90;;;;;;5157703;27;20133;-63
2023/06/05 05:44:44;;;;;;;7.15;3.60;;;12.10;99.90;;;;;;5158175;27;20142;-63
2023/06/05 05:47:10;;;;;;;6.00;3.75;;;12.10;99.90;;;;;;5157926;27;20054;-63
2023/06/05 05:49:36;;;;;;;6.55;4.18;;;12.10;99.90;;;;;;5158103;27;20382;-63
2023/06/05 05:52:02;;;;;;;7.70;3.22;;;12.20;99.90;;;;;;5157557;27;20047;-63
2023/06/05 05:54:28;;;;;;;8.07;3.75;;;12.30;99.90;;;;;;5157920;27;20038;-63
2023/06/05 05:56:55;;;;;;;5.45;3.40;;;12.40;99.90;;;;;;5139732;27;20054;-63
2023/06/05 05:59:21;;;;;;;5.45;3.50;;;12.50;99.90;;;;;;5136923;27;20092;-63
2023/06/05 06:01:48;;;;;;;6.15;3.97;;;12.60;99.90;;;;;;5136900;27;20051;-63
2023/06/05 06:04:16;;;;;;;5.95;3.67;;;12.70;99.90;;;;;;5136355;27;20182;-63
2023/06/05 06:06:42;;;;;;;5.50;3.38;;;12.80;99.90;;;;;;5136709;27;20035;-63
2023/06/05 06:09:08;;;;;;;6.28;3.92;;;12.90;99.90;;;;;;5136837;27;20046;-63
2023/06/05 06:11:36;;;;;;;6.72;4.55;;;13.00;99.90;;;;;;5136834;27;20047;-63
2023/06/05 06:14:02;;;;;;;5.20;3.15;;;13.10;99.90;;;;;;5136716;27;20050;-64
2023/06/05 06:16:27;;;;;;;7.82;3.60;;;13.10;99.90;;;;;;5136458;27;20042;-64
2023/06/05 06:18:55;;;;;;;5.47;3.53;;;13.20;99.90;;;;;;5136625;27;20031;-63
2023/06/05 06:21:20;;;;;;;5.43;3.50;;;13.30;99.90;;;;;;5133656;27;20047;-64
2023/06/05 06:23:47;;;;;;;6.45;3.55;;;13.40;99.90;;;;;;5147195;27;20074;-64
2023/06/05 06:26:14;;;;;;;7.05;3.70;;;13.50;99.90;;;;;;5154613;27;20050;-64
2023/06/05 06:28:40;;;;;;;5.47;3.38;;;13.50;99.90;;;;;;5128644;27;20142;-62
2023/06/05 06:31:07;;;;;;;5.15;3.45;;;13.60;99.90;;;;;;5147150;27;20049;-63
2023/06/05 06:33:32;;;;;;;5.25;3.13;;;13.70;99.90;;;;;;5146047;27;20042;-63
2023/06/05 06:35:58;;;;;;;4.72;2.95;;;13.80;99.90;;;;;;5136112;27;20043;-63
2023/06/05 06:38:30;;;;;;;5.05;3.05;;;13.90;99.90;;;;;;5146656;27;20047;-64
2023/06/05 06:40:57;;;;;;;4.45;2.85;;;14.10;99.90;;;;;;5121248;27;20046;-64
2023/06/05 06:43:23;;;;;;;4.43;2.72;;;14.10;99.90;;;;;;5155602;27;20050;-64
2023/06/05 06:45:50;;;;;;;3.13;2.17;;;14.30;99.90;;;;;;5156373;27;20043;-64
2023/06/05 06:48:20;;;;;;;5.03;2.95;;;14.30;99.90;;;;;;5156083;27;20050;-64
2023/06/05 06:50:46;;;;;;;4.80;3.25;;;14.50;99.90;;;;;;5156776;27;20050;-64
2023/06/05 06:53:12;;;;;;;4.57;2.67;;;14.50;99.90;;;;;;5155661;27;20505;-63
2023/06/05 06:55:38;;;;;;;5.10;2.63;;;14.40;99.90;;;;;;5149450;27;20071;-64
2023/06/05 06:58:05;;;;;;;4.70;2.70;;;14.40;99.90;;;;;;5136644;27;20440;-64
2023/06/05 07:00:30;;;;;;;3.97;2.40;;;14.40;99.90;;;;;;5134886;27;20431;-64
2023/06/05 07:02:56;;;;;;;4.10;2.80;;;14.40;99.90;;;;;;5135309;27;20118;-64
2023/06/05 07:05:22;;;;;;;3.58;2.60;;;14.40;99.90;;;;;;5134892;27;20501;-64
2023/06/05 07:07:48;;;;;;;4.80;2.60;;;14.40;99.90;;;;;;5135162;27;20038;-64
2023/06/05 07:10:14;;;;;;;3.75;2.50;;;14.50;99.90;;;;;;5116841;27;20470;-64
2023/06/05 07:12:40;;;;;;;3.92;2.30;;;14.60;99.90;;;;;;5135441;27;20178;-63
2023/06/05 07:15:06;;;;;;;4.55;2.70;;;14.80;99.90;;;;;;5134800;27;20079;-63
2023/06/05 07:17:32;;;;;;;3.83;2.63;;;14.90;99.90;;;;;;5148472;27;20049;-63
2023/06/05 07:19:57;;;;;;;3.45;2.20;;;15.00;99.90;;;;;;5156104;27;20415;-63
2023/06/05 07:22:28;;;;;;;3.90;2.10;;;15.00;99.90;;;;;;5155687;27;20042;-63
2023/06/05 07:24:54;;;;;;;3.75;2.40;;;15.00;99.90;;;;;;5137849;27;20053;-63
2023/06/05 07:27:20;;;;;;;4.60;2.53;;;15.10;99.90;;;;;;5155319;27;20039;-63
2023/06/05 07:29:46;;;;;;;4.47;2.25;;;15.20;99.90;;;;;;5155081;27;20054;-63
2023/06/05 07:32:13;;;;;;;4.00;2.38;;;15.30;99.90;;;;;;5139232;27;20039;-63
2023/06/05 07:34:38;;;;;;;5.25;2.40;;;15.40;99.90;;;;;;5134714;27;20050;-63
2023/06/05 07:37:07;;;;;;;3.88;2.65;;;15.60;99.90;;;;;;5134682;27;20043;-63
2023/06/05 07:39:33;;;;;;;3.92;2.67;;;15.80;99.90;;;;;;5134815;27;20050;-63
2023/06/05 07:41:59;;;;;;;4.50;2.60;;;16.00;99.90;;;;;;5134965;27;20057;-64
2023/06/05 07:44:25;;;;;;;3.60;2.30;;;16.00;99.90;;;;;;5134685;27;20043;-63
2023/06/05 07:46:51;;;;;;;4.43;2.50;;;16.10;99.90;;;;;;5134883;27;20490;-63
2023/06/05 07:49:18;;;;;;;4.85;2.78;;;16.10;99.90;;;;;;5134837;27;20058;-63
2023/06/05 07:51:46;;;;;;;4.47;2.45;;;16.20;99.90;;;;;;5134278;27;20480;-63
2023/06/05 07:54:13;;;;;;;4.45;2.53;;;16.20;99.90;;;;;;5134678;27;20062;-63
2023/06/05 07:56:39;;;;;;;4.47;2.67;;;16.30;99.90;;;;;;5150438;27;20050;-63
2023/06/05 07:59:06;;;;;;;5.05;2.60;;;16.40;99.90;;;;;;5154886;27;20042;-64
2023/06/05 08:01:36;;;;;;;4.35;2.40;;;16.50;99.90;;;;;;5155224;27;20168;-63
2023/06/05 08:04:06;;;;;;;4.90;2.55;;;16.60;99.90;;;;;;5154635;27;20487;-63
2023/06/05 08:06:32;;;;;;;5.57;2.33;;;16.70;99.90;;;;;;5155235;27;20061;-63
2023/06/05 08:09:01;;;;;;;3.95;2.70;;;16.80;99.90;;;;;;5155064;27;20038;-64
2023/06/05 08:11:28;;;;;;;4.38;2.45;;;16.80;99.90;;;;;;5155190;27;20046;-63
2023/06/05 08:13:55;;;;;;;5.72;2.85;;;17.00;99.90;;;;;;5154682;27;20129;-63
2023/06/05 08:16:21;;;;;;;4.10;3.00;;;17.10;99.90;;;;;;5154847;27;20047;-63
2023/06/05 08:18:47;;;;;;;3.90;2.83;;;17.20;99.90;;;;;;5136401;27;20122;-63
2023/06/05 08:21:13;;;;;;;4.28;2.60;;;17.20;99.90;;;;;;5154694;27;20081;-61
2023/06/05 08:23:39;;;;;;;5.72;2.80;;;17.20;99.90;;;;;;5136503;27;20039;-62
2023/06/05 08:26:11;;;;;;;4.40;2.45;;;17.30;99.90;;;;;;5154819;27;20046;-63
2023/06/05 08:28:41;;;;;;;3.72;2.67;;;17.40;99.90;;;;;;5154365;27;20078;-63
2023/06/05 08:31:07;;;;;;;5.05;2.85;;;17.60;99.90;;;;;;5147742;27;20083;-63
2023/06/05 08:33:34;;;;;;;3.63;2.58;;;17.70;99.90;;;;;;5115473;28;20062;-64
2023/06/05 08:36:01;;;;;;;4.40;2.72;;;17.80;99.90;;;;;;5133755;27;20061;-64
2023/06/05 08:38:28;;;;;;;3.20;2.17;;;17.80;99.90;;;;;;5133967;27;20035;-64
2023/06/05 08:41:07;;;;;;;3.60;2.63;;;18.00;99.90;;;;;;5134275;27;20120;-63
2023/06/05 08:43:37;;;;;;;4.57;2.60;;;18.10;99.90;;;;;;5133622;27;20042;-63
2023/06/05 08:46:05;;;;;;;5.10;2.83;;;18.10;99.90;;;;;;5115580;28;20047;-64
2023/06/05 08:48:34;;;;;;;5.13;2.47;;;18.00;99.90;;;;;;5133878;27;20042;-64
2023/06/05 08:51:00;;;;;;;4.25;2.67;;;18.10;99.90;;;;;;5133058;27;20043;-64
2023/06/05 08:53:32;;;;;;;4.10;2.47;;;18.20;99.90;;;;;;5133967;28;20088;-64
2023/06/05 08:55:58;;;;;;;3.88;2.20;;;18.30;99.90;;;;;;5143700;27;20064;-64
2023/06/05 08:58:24;;;;;;;4.00;2.85;;;18.40;99.90;;;;;;5154220;27;20145;-64
2023/06/05 09:00:50;;;;;;;4.63;2.35;;;18.50;99.90;;;;;;5154523;27;20091;-64
2023/06/05 09:03:19;;;;;;;5.45;2.63;;;18.70;99.90;;;;;;5153936;27;20051;-64
2023/06/05 09:05:47;;;;;;;3.67;2.30;;;18.80;99.90;;;;;;5154230;27;20047;-63
2023/06/05 09:08:14;;;;;;;4.88;2.55;;;18.70;99.90;;;;;;5154395;27;20053;-64
2023/06/05 09:10:39;;;;;;;3.72;2.33;;;18.70;99.90;;;;;;5154484;27;20049;-63
2023/06/05 09:13:05;;;;;;;5.03;2.85;;;18.60;99.90;;;;;;5154390;27;20039;-63
2023/06/05 09:15:33;;;;;;;4.07;2.60;;;18.50;99.90;;;;;;5154284;27;20533;-64
2023/06/05 09:18:10;;;;;;;4.35;2.30;;;18.60;99.90;;;;;;5154019;27;20043;-64
2023/06/05 09:20:41;;;;;;;3.60;2.58;;;18.70;99.90;;;;;;5154210;27;20046;-63
2023/06/05 09:23:27;;;;;;;4.07;2.10;;;18.80;99.90;;;;;;5153298;27;20484;-64
2023/06/05 09:26:03;;;;;;;4.47;2.42;;;18.90;99.90;;;;;;5153033;27;20495;-64
2023/06/05 09:28:29;;;;;;;3.33;2.10;;;19.20;99.90;;;;;;5153781;27;20154;-64
2023/06/05 09:30:56;;;;;;;3.70;2.60;;;19.30;99.90;;;;;;5148086;27;20507;-64
2023/06/05 09:33:26;;;;;;;3.92;2.38;;;19.40;99.90;;;;;;5132650;28;20130;-64
2023/06/05 09:36:05;;;;;;;4.47;2.58;;;19.50;99.90;;;;;;5133138;28;20054;-64
2023/06/05 09:38:31;;;;;;;4.05;2.55;;;19.70;99.90;;;;;;5133217;28;20043;-64
2023/06/05 09:41:07;;;;;;;3.75;2.30;;;19.80;99.90;;;;;;5133145;27;20130;-63
2023/06/05 09:43:33;;;;;;;3.05;2.30;;;20.20;99.90;;;;;;5145091;27;20111;-64
2023/06/05 09:46:12;;;;;;;4.30;2.40;;;20.30;99.90;;;;;;5153824;27;20103;-65
2023/06/05 09:48:39;;;;;;;4.05;2.20;;;20.40;99.90;;;;;;5153569;27;20038;-65
2023/06/05 09:51:17;;;;;;;4.45;2.60;;;20.50;99.90;;;;;;5154089;27;20043;-65
2023/06/05 09:53:47;;;;;;;4.03;2.35;;;20.60;99.90;;;;;;5153749;27;20542;-65
2023/06/05 09:56:15;;;;;;;4.00;2.30;;;20.70;99.90;;;;;;5146579;27;20043;-64
2023/06/05 09:58:49;;;;;;;3.45;2.30;;;20.70;99.90;;;;;;5135257;27;20043;-64
2023/06/05 10:01:23;;;;;;;3.33;2.10;;;20.80;99.90;;;;;;5136657;27;20038;-64
2023/06/05 10:03:53;;;;;;;3.58;2.35;;;20.90;99.90;;;;;;5133680;27;20043;-64
2023/06/05 10:06:23;;;;;;;4.95;2.30;;;20.90;99.90;;;;;;5136880;27;20035;-63
2023/06/05 10:08:52;;;;;;;3.65;2.10;;;21.00;99.90;;;;;;5118574;27;20125;-63
2023/06/05 10:11:20;;;;;;;4.43;2.47;;;21.00;99.90;;;;;;5136237;27;20189;-63
2023/06/05 10:13:47;;;;;;;4.15;2.25;;;21.20;99.90;;;;;;5136785;27;20126;-61
2023/06/05 10:16:13;;;;;;;4.43;2.40;;;21.30;99.90;;;;;;5139097;27;20043;-61
2023/06/05 10:18:40;;;;;;;3.90;2.15;;;21.50;99.90;;;;;;5156733;27;20078;-61
2023/06/05 10:21:06;;;;;;;3.40;2.20;;;21.50;99.90;;;;;;5121474;27;20103;-60
2023/06/05 10:23:33;;;;;;;3.67;2.30;;;21.60;99.90;;;;;;5156945;27;20106;-63
2023/06/05 10:26:07;;;;;;;3.13;2.30;;;21.60;99.90;;;;;;5156377;27;20451;-62
2023/06/05 10:28:46;;;;;;;3.92;2.20;;;21.70;99.90;;;;;;5156606;27;20062;-62
2023/06/05 10:31:26;;;;;;;3.15;2.28;;;22.10;99.90;;;;;;5149373;27;20043;-62
2023/06/05 10:33:58;;;;;;;3.75;2.35;;;22.30;99.90;;;;;;5135478;27;20455;-62
2023/06/05 10:36:53;;;;;;;3.45;2.03;;;22.40;99.90;;;;;;5136181;27;20054;-62
2023/06/05 10:39:19;;;;;;;3.05;1.95;;;22.60;99.90;;;;;;5154730;27;20047;-61
2023/06/05 10:41:44;;;;;;;4.55;2.20;;;22.80;99.90;;;;;;5156134;27;20050;-61
2023/06/05 10:44:10;;;;;;;3.70;2.17;;;22.80;99.90;;;;;;5156688;27;20039;-61
2023/06/05 10:46:36;;;;;;;4.15;2.30;;;22.80;99.90;;;;;;5137695;27;20515;-61
2023/06/05 10:49:21;;;;;;;3.05;2.03;;;22.90;99.90;;;;;;5156139;27;20411;-61
2023/06/05 10:51:49;;;;;;;3.40;2.22;;;23.10;99.90;;;;;;5151088;27;20043;-61
2023/06/05 10:54:24;;;;;;;2.53;1.80;;;23.10;99.90;;;;;;5135870;27;20054;-61
2023/06/05 10:57:02;;;;;;;2.90;2.10;;;23.30;99.90;;;;;;5135476;27;20046;-61
2023/06/05 10:59:32;;;;;;;3.38;2.08;;;23.40;99.90;;;;;;5135445;27;20091;-61
2023/06/05 11:02:08;;;;;;;3.03;1.90;;;23.50;99.90;;;;;;5135667;27;20053;-61
2023/06/05 11:04:46;;;;;;;4.00;2.28;;;23.60;99.90;;;;;;5135772;27;20437;-61
2023/06/05 11:07:24;;;;;;;3.38;2.03;;;23.90;99.90;;;;;;5135244;27;20031;-62
2023/06/05 11:10:01;;;;;;;3.80;1.95;;;23.90;99.90;;;;;;5135366;27;20099;-62
2023/06/05 11:12:50;;;;;;;3.00;2.00;;;23.90;99.90;;;;;;5135399;27;20039;-62
2023/06/05 11:15:22;;;;;;;4.13;2.30;;;23.90;99.90;;;;;;5119025;27;20506;-62
2023/06/05 11:17:48;;;;;;;2.75;1.80;;;24.00;99.90;;;;;;5128998;27;20104;-62
2023/06/05 11:20:23;;;;;;;3.50;1.92;;;24.10;99.90;;;;;;5135369;27;20462;-63
2023/06/05 11:22:57;;;;;;;3.22;1.70;;;24.20;99.90;;;;;;5135427;27;20150;-62
2023/06/05 11:25:32;;;;;;;2.90;1.83;;;24.20;99.90;;;;;;5135770;27;20082;-63
2023/06/05 11:28:05;;;;;;;2.90;1.88;;;24.20;99.90;;;;;;5139075;27;20108;-62
2023/06/05 11:30:49;;;;;;;3.13;1.80;;;24.20;99.90;;;;;;5137460;27;20130;-62
2023/06/05 11:33:17;;;;;;;2.60;1.95;;;24.40;99.90;;;;;;5136706;27;20086;-62
2023/06/05 11:35:45;;;;;;;3.15;1.60;;;24.50;99.90;;;;;;5134458;27;20062;-62
2023/06/05 11:38:16;;;;;;;3.75;2.10;;;24.70;99.90;;;;;;5143575;27;20134;-62
2023/06/05 11:40:43;;;;;;;3.65;1.85;;;24.70;99.90;;;;;;5154990;27;20110;-61
2023/06/05 11:43:12;;;;;;;3.50;1.85;;;24.70;99.90;;;;;;5153881;27;20394;-62
2023/06/05 11:45:39;;;;;;;2.92;1.70;;;24.80;99.90;;;;;;5132281;27;20065;-62
2023/06/05 11:48:10;;;;;;;2.78;1.70;;;25.00;99.90;;;;;;5149697;27;20490;-62
2023/06/05 11:50:37;;;;;;;2.53;1.55;;;25.20;99.90;;;;;;5155044;27;20043;-61
2023/06/05 11:53:11;;;;;;;3.00;1.58;;;25.20;99.90;;;;;;5155054;27;20075;-61
2023/06/05 11:55:53;;;;;;;2.88;1.88;;;25.10;99.90;;;;;;5146974;27;20035;-62
2023/06/05 11:58:27;;;;;;;3.17;1.75;;;25.20;99.90;;;;;;5134198;27;20121;-62
2023/06/05 12:01:04;;;;;;;2.70;1.70;;;25.50;99.90;;;;;;5134052;27;20086;-62
2023/06/05 12:03:30;;;;;;;2.85;1.73;;;25.50;99.90;;;;;;5115212;27;20468;-62
2023/06/05 12:05:57;;;;;;;3.13;1.60;;;25.30;99.90;;;;;;5098241;27;20046;-61
2023/06/05 12:08:25;;;;;;;3.08;1.80;;;25.30;99.90;;;;;;5134116;27;20470;-62
2023/06/05 12:10:52;;;;;;;2.58;1.70;;;25.50;99.90;;;;;;5133970;27;20075;-62
2023/06/05 12:13:18;;;;;;;2.17;1.35;;;25.50;99.90;;;;;;5134362;27;20400;-62
2023/06/05 12:15:56;;;;;;;2.15;1.50;;;25.50;99.90;;;;;;5133249;27;20054;-61
2023/06/05 12:18:33;;;;;;;2.22;1.58;;;25.50;99.90;;;;;;5133335;27;20039;-62
2023/06/05 12:21:00;;;;;;;2.58;1.63;;;25.50;99.90;;;;;;5134192;27;20047;-62
2023/06/05 12:23:26;;;;;;;3.15;1.70;;;25.50;99.90;;;;;;5134200;27;20043;-62
2023/06/05 12:26:03;;;;;;;2.83;1.92;;;25.80;99.90;;;;;;5132972;27;20058;-62
2023/06/05 12:28:30;;;;;;;2.88;1.77;;;26.10;99.90;;;;;;5133284;27;20059;-63
2023/06/05 12:30:56;;;;;;;2.20;1.58;;;26.10;99.90;;;;;;5132775;27;20055;-63
2023/06/05 12:33:25;;;;;;;3.03;1.67;;;26.20;99.90;;;;;;5148207;27;20042;-63
2023/06/05 12:36:07;;;;;;;4.10;2.03;;;26.20;99.90;;;;;;5153413;27;20121;-63
2023/06/05 12:38:41;;;;;;;2.80;1.50;;;26.30;99.90;;;;;;5136402;27;20082;-63
2023/06/05 12:41:10;;;;;;;3.15;1.60;;;26.40;99.90;;;;;;5132780;27;20622;-62
2023/06/05 12:43:36;;;;;;;2.80;1.67;;;26.60;99.90;;;;;;5150951;27;20046;-62
2023/06/05 12:46:02;;;;;;;4.20;1.70;;;26.70;99.90;;;;;;5154228;27;20065;-63
2023/06/05 12:48:28;;;;;;;2.30;1.52;;;26.70;99.90;;;;;;5153583;27;20387;-62
2023/06/05 12:50:54;;;;;;;3.67;1.52;;;26.70;99.90;;;;;;5154797;27;20054;-62
2023/06/05 12:53:20;;;;;;;2.50;1.83;;;26.80;99.90;;;;;;5154117;27;20054;-62
2023/06/05 12:55:46;;;;;;;2.97;1.77;;;27.00;99.90;;;;;;5145671;27;20039;-62